Time;durP1;ratioP1;P1;durP2;ratioP2;P2;SDS_P1;SDS_P2;PMS_P1;PMS_P2;Temp;Humidity;BMP_temperature;BMP_pressure;BME280_temperature;BME280_humidity;BME280_pressure;Samples;Min_cycle;Max_cycle;Signal;HPM_P1;HPM_P2
2020/12/25 00:01:45;;;;;;;21.65;15.73;;;;;;;;;;5056792;28;20262;-65
2020/12/25 00:04:13;;;;;;;5.55;5.05;;;;;;;;;;5057002;28;20181;-65
2020/12/25 00:06:43;;;;;;;4.80;4.25;;;;;;;;;;5056407;28;20188;-66
2020/12/25 00:09:10;;;;;;;4.90;2.40;;;;;;;;;;5056795;28;20192;-64
2020/12/25 00:11:38;;;;;;;2.00;1.90;;;;;;;;;;5055139;28;20204;-65
2020/12/25 00:14:05;;;;;;;2.70;2.50;;;;;;;;;;5056572;28;20636;-66
2020/12/25 00:16:32;;;;;;;7.40;2.47;;;;;;;;;;5056658;28;20201;-65
2020/12/25 00:19:01;;;;;;;2.20;2.00;;;;;;;;;;5056464;28;20648;-66
2020/12/25 00:21:36;;;;;;;2.20;2.10;;;;;;;;;;5056865;28;20189;-66
2020/12/25 00:24:06;;;;;;;14.30;12.85;;;;;;;;;;5056412;28;20197;-66
2020/12/25 00:26:33;;;;;;;3.70;3.40;;;;;;;;;;5056480;28;20200;-65
2020/12/25 00:29:01;;;;;;;3.80;3.50;;;;;;;;;;5056448;28;20197;-65
2020/12/25 00:31:28;;;;;;;3.08;2.65;;;;;;;;;;5055905;28;20235;-66
2020/12/25 00:33:56;;;;;;;9.70;6.68;;;;;;;;;;5056261;28;20319;-64
2020/12/25 00:36:23;;;;;;;2.90;2.65;;;;;;;;;;5056012;28;20209;-65
2020/12/25 00:38:54;;;;;;;4.68;3.95;;;;;;;;;;5054901;28;20204;-65
2020/12/25 00:41:20;;;;;;;3.78;3.45;;;;;;;;;;5056449;28;20608;-66
2020/12/25 00:43:48;;;;;;;2.30;2.10;;;;;;;;;;5055151;28;20208;-66
2020/12/25 00:46:15;;;;;;;3.78;2.67;;;;;;;;;;5056419;28;20652;-66
2020/12/25 00:48:42;;;;;;;5.00;4.00;;;;;;;;;;5054557;28;20216;-66
2020/12/25 00:51:12;;;;;;;3.85;2.97;;;;;;;;;;5055881;28;20227;-67
2020/12/25 00:53:39;;;;;;;8.32;4.38;;;;;;;;;;5055850;28;20223;-65
2020/12/25 00:56:06;;;;;;;3.55;3.20;;;;;;;;;;5055434;28;20204;-64
2020/12/25 00:58:33;;;;;;;3.60;3.05;;;;;;;;;;5055125;28;20185;-65
2020/12/25 01:01:01;;;;;;;3.13;2.90;;;;;;;;;;5055672;28;20712;-65
2020/12/25 01:03:33;;;;;;;7.65;4.78;;;;;;;;;;5055651;28;20181;-65
2020/12/25 01:05:59;;;;;;;6.55;4.43;;;;;;;;;;5055693;28;20188;-66
2020/12/25 01:08:26;;;;;;;1.92;1.83;;;;;;;;;;5055772;28;20195;-65
2020/12/25 01:10:54;;;;;;;2.30;1.52;;;;;;;;;;5055540;28;20188;-64
2020/12/25 01:13:21;;;;;;;1.45;1.35;;;;;;;;;;5055661;28;20216;-65
2020/12/25 01:15:48;;;;;;;1.48;1.10;;;;;;;;;;5055982;28;20191;-67
2020/12/25 01:18:15;;;;;;;1.60;1.50;;;;;;;;;;5055616;28;20558;-65
2020/12/25 01:20:41;;;;;;;1.00;1.00;;;;;;;;;;5055145;28;20199;-65
2020/12/25 01:23:08;;;;;;;1.70;1.50;;;;;;;;;;5055137;28;20287;-65
2020/12/25 01:25:36;;;;;;;1.42;1.33;;;;;;;;;;5055279;28;20197;-65
2020/12/25 01:28:03;;;;;;;3.17;1.50;;;;;;;;;;5055247;28;20215;-66
2020/12/25 01:30:29;;;;;;;1.30;1.23;;;;;;;;;;5055567;28;20672;-65
2020/12/25 01:32:58;;;;;;;1.38;1.25;;;;;;;;;;5054806;28;20224;-65
2020/12/25 01:35:24;;;;;;;1.67;1.58;;;;;;;;;;5055063;28;20185;-65
2020/12/25 01:37:51;;;;;;;4.30;1.73;;;;;;;;;;5055476;28;20211;-65
2020/12/25 01:40:19;;;;;;;1.95;1.40;;;;;;;;;;5053657;28;20204;-65
2020/12/25 01:42:45;;;;;;;1.40;1.30;;;;;;;;;;5054852;28;20559;-65
2020/12/25 01:45:14;;;;;;;1.40;1.30;;;;;;;;;;5055295;28;20207;-65
2020/12/25 01:47:41;;;;;;;1.75;1.65;;;;;;;;;;5054776;28;20626;-64
2020/12/25 01:50:09;;;;;;;1.65;1.55;;;;;;;;;;5054633;28;20206;-65
2020/12/25 01:52:38;;;;;;;2.15;1.90;;;;;;;;;;5054578;28;20545;-63
2020/12/25 01:55:07;;;;;;;2.60;2.40;;;;;;;;;;5054637;28;20189;-63
2020/12/25 01:57:34;;;;;;;4.70;3.53;;;;;;;;;;5054808;28;20200;-63
2020/12/25 02:00:04;;;;;;;6.45;5.10;;;;;;;;;;5054624;28;20258;-63
2020/12/25 02:02:33;;;;;;;4.22;3.40;;;;;;;;;;5054793;28;20181;-63
2020/12/25 02:05:01;;;;;;;4.20;2.80;;;;;;;;;;5054167;28;20278;-63
2020/12/25 02:07:27;;;;;;;4.20;3.65;;;;;;;;;;5054146;28;20193;-63
2020/12/25 02:09:54;;;;;;;3.80;3.05;;;;;;;;;;5053902;28;20192;-63
2020/12/25 02:12:21;;;;;;;3.78;2.60;;;;;;;;;;5054019;28;20309;-63
2020/12/25 02:14:48;;;;;;;7.72;2.95;;;;;;;;;;5054284;28;20678;-63
2020/12/25 02:17:17;;;;;;;3.80;2.67;;;;;;;;;;5054026;28;20242;-63
2020/12/25 02:19:46;;;;;;;9.68;5.22;;;;;;;;;;5052933;28;20189;-64
2020/12/25 02:22:14;;;;;;;5.70;3.88;;;;;;;;;;5052507;28;20205;-63
2020/12/25 02:24:43;;;;;;;3.25;2.97;;;;;;;;;;5053888;28;20196;-63
2020/12/25 02:27:09;;;;;;;3.25;3.00;;;;;;;;;;5053464;28;20624;-63
2020/12/25 02:29:36;;;;;;;3.88;2.90;;;;;;;;;;5053774;28;20661;-63
2020/12/25 02:32:03;;;;;;;5.13;3.65;;;;;;;;;;5054139;28;20625;-63
2020/12/25 02:34:31;;;;;;;5.10;4.18;;;;;;;;;;5053932;28;20635;-63
2020/12/25 02:36:57;;;;;;;4.45;4.05;;;;;;;;;;5053914;28;20200;-63
2020/12/25 02:39:26;;;;;;;4.38;3.33;;;;;;;;;;5052851;28;20234;-63
2020/12/25 02:41:55;;;;;;;4.47;4.05;;;;;;;;;;5053898;28;20193;-63
2020/12/25 02:44:21;;;;;;;4.10;2.67;;;;;;;;;;5053817;28;20199;-63
2020/12/25 02:46:53;;;;;;;2.92;2.50;;;;;;;;;;5053633;28;20169;-63
2020/12/25 02:49:20;;;;;;;4.60;3.22;;;;;;;;;;5052553;28;20601;-63
2020/12/25 02:51:50;;;;;;;3.05;2.85;;;;;;;;;;5054126;28;20199;-63
2020/12/25 02:54:17;;;;;;;5.35;3.70;;;;;;;;;;5054001;28;20195;-63
2020/12/25 02:56:44;;;;;;;7.85;4.00;;;;;;;;;;5053849;28;20197;-63
2020/12/25 02:59:13;;;;;;;5.10;4.20;;;;;;;;;;5053759;28;20264;-63
2020/12/25 03:01:42;;;;;;;9.35;5.10;;;;;;;;;;5053511;28;20200;-64
2020/12/25 03:04:09;;;;;;;7.68;6.07;;;;;;;;;;5053749;28;20636;-63
2020/12/25 03:06:36;;;;;;;6.10;5.45;;;;;;;;;;5053628;28;20204;-63
2020/12/25 03:09:02;;;;;;;6.65;5.30;;;;;;;;;;5053686;28;20211;-63
2020/12/25 03:11:30;;;;;;;9.63;6.70;;;;;;;;;;5053501;28;20189;-63
2020/12/25 03:13:56;;;;;;;11.50;6.00;;;;;;;;;;5053472;28;20232;-63
2020/12/25 03:16:23;;;;;;;9.18;6.15;;;;;;;;;;5053878;28;20532;-63
2020/12/25 03:18:50;;;;;;;7.38;5.93;;;;;;;;;;5053850;28;20250;-63
2020/12/25 03:21:16;;;;;;;7.80;6.43;;;;;;;;;;5056485;28;20199;-63
2020/12/25 03:23:43;;;;;;;13.40;7.80;;;;;;;;;;5057202;28;20562;-63
2020/12/25 03:26:10;;;;;;;11.50;6.40;;;;;;;;;;5057558;28;20673;-63
2020/12/25 03:28:36;;;;;;;8.95;6.05;;;;;;;;;;5055991;28;20659;-63
2020/12/25 03:31:03;;;;;;;11.52;5.90;;;;;;;;;;5057236;28;20237;-63
2020/12/25 03:33:30;;;;;;;10.20;6.35;;;;;;;;;;5057750;28;20648;-63
2020/12/25 03:35:56;;;;;;;9.10;5.60;;;;;;;;;;5057528;28;20200;-63
2020/12/25 03:38:23;;;;;;;11.10;5.95;;;;;;;;;;5057488;28;20196;-63
2020/12/25 03:40:49;;;;;;;9.05;6.20;;;;;;;;;;5057515;28;20197;-63
2020/12/25 03:43:16;;;;;;;12.40;6.40;;;;;;;;;;5057316;28;20196;-63
2020/12/25 03:45:43;;;;;;;11.02;8.45;;;;;;;;;;5057631;28;20203;-63
2020/12/25 03:48:11;;;;;;;15.95;8.75;;;;;;;;;;5056952;28;20680;-63
2020/12/25 03:50:38;;;;;;;10.00;7.28;;;;;;;;;;5057231;28;20216;-65
2020/12/25 03:53:05;;;;;;;11.68;6.13;;;;;;;;;;5057168;28;20315;-64
2020/12/25 03:55:32;;;;;;;10.85;6.53;;;;;;;;;;5057261;28;20561;-63
2020/12/25 03:57:58;;;;;;;8.82;5.93;;;;;;;;;;5056774;28;20200;-63
2020/12/25 04:00:25;;;;;;;11.27;5.68;;;;;;;;;;5056716;28;20211;-63
2020/12/25 04:02:52;;;;;;;5.35;4.85;;;;;;;;;;5056670;28;20201;-63
2020/12/25 04:05:18;;;;;;;8.98;6.93;;;;;;;;;;5056946;28;20220;-63
2020/12/25 04:07:45;;;;;;;7.97;6.60;;;;;;;;;;5056636;28;20193;-63
2020/12/25 04:10:12;;;;;;;19.13;10.13;;;;;;;;;;5056825;28;20204;-63
2020/12/25 04:12:38;;;;;;;10.23;8.18;;;;;;;;;;5056420;28;20227;-62
2020/12/25 04:15:05;;;;;;;11.32;7.90;;;;;;;;;;5056704;28;20250;-62
2020/12/25 04:17:31;;;;;;;8.02;6.40;;;;;;;;;;5057548;28;20220;-62
2020/12/25 04:19:58;;;;;;;8.15;4.80;;;;;;;;;;5055480;28;20212;-62
2020/12/25 04:22:25;;;;;;;10.10;6.40;;;;;;;;;;5056431;28;20271;-62
2020/12/25 04:24:51;;;;;;;11.23;8.27;;;;;;;;;;5056950;28;20208;-64
2020/12/25 04:27:18;;;;;;;8.40;7.13;;;;;;;;;;5056456;28;20649;-63
2020/12/25 04:29:45;;;;;;;17.90;11.50;;;;;;;;;;5055616;28;20243;-63
2020/12/25 04:32:13;;;;;;;10.50;6.45;;;;;;;;;;5055909;28;20200;-63
2020/12/25 04:34:41;;;;;;;15.27;9.07;;;;;;;;;;5056508;28;20201;-63
2020/12/25 04:37:07;;;;;;;7.30;6.22;;;;;;;;;;5056207;28;20195;-63
2020/12/25 04:39:34;;;;;;;13.18;8.80;;;;;;;;;;5056257;28;20668;-63
2020/12/25 04:42:00;;;;;;;8.43;5.18;;;;;;;;;;5056234;28;20644;-63
2020/12/25 04:44:27;;;;;;;10.07;6.20;;;;;;;;;;5056360;28;20675;-64
2020/12/25 04:46:58;;;;;;;7.45;6.25;;;;;;;;;;5056045;28;20184;-64
2020/12/25 04:49:25;;;;;;;11.10;7.30;;;;;;;;;;5055976;28;20216;-64
2020/12/25 04:51:52;;;;;;;7.13;5.60;;;;;;;;;;5056501;28;20197;-64
2020/12/25 04:54:18;;;;;;;11.23;7.85;;;;;;;;;;5054879;28;20757;-63
2020/12/25 04:56:47;;;;;;;10.10;7.82;;;;;;;;;;5056432;28;20276;-63
2020/12/25 04:59:14;;;;;;;9.30;7.00;;;;;;;;;;5055612;28;20204;-64
2020/12/25 05:01:41;;;;;;;11.20;7.55;;;;;;;;;;5055598;28;20192;-64
2020/12/25 05:04:18;;;;;;;10.95;8.75;;;;;;;;;;5054988;28;20208;-63
2020/12/25 05:06:46;;;;;;;8.27;6.85;;;;;;;;;;5056265;28;20215;-63
2020/12/25 05:09:15;;;;;;;11.55;7.18;;;;;;;;;;5055841;28;20213;-64
2020/12/25 05:11:57;;;;;;;8.45;6.38;;;;;;;;;;5055300;28;20200;-63
2020/12/25 05:14:26;;;;;;;6.38;5.45;;;;;;;;;;5055251;28;20196;-63
2020/12/25 05:16:53;;;;;;;6.10;5.50;;;;;;;;;;5055446;28;20208;-63
2020/12/25 05:19:28;;;;;;;5.90;5.38;;;;;;;;;;5055091;28;20255;-63
2020/12/25 05:21:56;;;;;;;7.50;5.68;;;;;;;;;;5055276;28;20201;-63
2020/12/25 05:24:23;;;;;;;6.65;4.93;;;;;;;;;;5055475;28;20208;-63
2020/12/25 05:26:55;;;;;;;6.85;6.13;;;;;;;;;;5055389;28;20223;-63
2020/12/25 05:29:23;;;;;;;7.22;5.70;;;;;;;;;;5055006;28;20187;-63
2020/12/25 05:31:51;;;;;;;6.50;5.47;;;;;;;;;;5055054;28;20693;-63
2020/12/25 05:34:19;;;;;;;11.23;6.13;;;;;;;;;;5055122;28;20244;-63
2020/12/25 05:36:49;;;;;;;7.75;6.32;;;;;;;;;;5055213;28;20192;-63
2020/12/25 05:39:26;;;;;;;8.25;6.55;;;;;;;;;;5055156;28;20648;-63
2020/12/25 05:41:55;;;;;;;12.73;5.32;;;;;;;;;;5054909;28;20200;-63
2020/12/25 05:44:27;;;;;;;5.28;4.78;;;;;;;;;;5054738;28;20204;-64
2020/12/25 05:46:57;;;;;;;7.18;6.22;;;;;;;;;;5053901;28;20572;-63
2020/12/25 05:49:26;;;;;;;9.90;6.15;;;;;;;;;;5054822;28;20263;-64
2020/12/25 05:51:53;;;;;;;10.15;5.20;;;;;;;;;;5054428;28;20704;-64
2020/12/25 05:54:27;;;;;;;7.72;5.88;;;;;;;;;;5053185;28;20581;-64
2020/12/25 05:56:56;;;;;;;6.88;5.75;;;;;;;;;;5054739;28;20192;-64
2020/12/25 05:59:25;;;;;;;5.57;4.32;;;;;;;;;;5054234;28;20236;-64
2020/12/25 06:01:56;;;;;;;5.20;4.50;;;;;;;;;;5054371;28;20204;-64
2020/12/25 06:04:24;;;;;;;5.50;5.00;;;;;;;;;;5054061;28;20201;-64
2020/12/25 06:06:53;;;;;;;7.93;5.57;;;;;;;;;;5054290;28;20273;-64
2020/12/25 06:09:21;;;;;;;14.60;6.05;;;;;;;;;;5054352;28;20263;-64
2020/12/25 06:11:50;;;;;;;8.82;5.38;;;;;;;;;;5054236;28;20268;-64
2020/12/25 06:14:19;;;;;;;6.47;5.85;;;;;;;;;;5054182;28;20220;-64
2020/12/25 06:17:05;;;;;;;8.15;5.90;;;;;;;;;;5054153;28;20189;-65
2020/12/25 06:19:49;;;;;;;5.70;5.18;;;;;;;;;;5050323;28;20211;-65
2020/12/25 06:22:22;;;;;;;5.50;4.88;;;;;;;;;;5054246;28;20212;-65
2020/12/25 06:24:51;;;;;;;12.60;6.55;;;;;;;;;;5052877;28;20201;-65
2020/12/25 06:27:17;;;;;;;6.68;5.63;;;;;;;;;;5054249;28;20204;-64
2020/12/25 06:29:44;;;;;;;5.82;5.28;;;;;;;;;;5053744;28;20225;-64
2020/12/25 06:32:13;;;;;;;6.55;6.00;;;;;;;;;;5054469;28;20550;-64
2020/12/25 06:34:46;;;;;;;7.95;6.20;;;;;;;;;;5054174;28;20224;-64
2020/12/25 06:37:17;;;;;;;9.82;7.15;;;;;;;;;;5054355;28;20356;-64
2020/12/25 06:39:53;;;;;;;7.88;6.43;;;;;;;;;;5053933;28;20655;-64
2020/12/25 06:42:32;;;;;;;6.90;6.20;;;;;;;;;;5054213;28;20631;-64
2020/12/25 06:44:59;;;;;;;7.20;6.28;;;;;;;;;;5052867;28;20218;-64
2020/12/25 06:47:27;;;;;;;7.15;5.13;;;;;;;;;;5054094;28;20266;-64
2020/12/25 06:49:55;;;;;;;8.30;5.45;;;;;;;;;;5053924;28;20645;-64
2020/12/25 06:52:30;;;;;;;6.40;5.85;;;;;;;;;;5054237;28;20195;-64
2020/12/25 06:54:59;;;;;;;5.90;5.30;;;;;;;;;;5052655;28;20236;-64
2020/12/25 06:57:29;;;;;;;9.57;5.30;;;;;;;;;;5053952;28;20607;-64
2020/12/25 07:00:02;;;;;;;5.57;5.07;;;;;;;;;;5052370;28;20576;-64
2020/12/25 07:02:28;;;;;;;5.40;5.00;;;;;;;;;;5053761;28;20654;-64
2020/12/25 07:05:01;;;;;;;6.55;4.40;;;;;;;;;;5053459;28;20201;-64
2020/12/25 07:07:32;;;;;;;6.15;5.30;;;;;;;;;;5054013;28;20181;-64
2020/12/25 07:10:02;;;;;;;5.50;4.95;;;;;;;;;;5053428;28;20201;-64
2020/12/25 07:12:30;;;;;;;5.32;4.82;;;;;;;;;;5053855;28;20173;-64
2020/12/25 07:14:57;;;;;;;7.80;6.53;;;;;;;;;;5053363;28;20274;-64
2020/12/25 07:17:25;;;;;;;9.13;6.22;;;;;;;;;;5053613;28;20202;-64
2020/12/25 07:19:53;;;;;;;5.30;4.80;;;;;;;;;;5053664;28;20185;-64
2020/12/25 07:22:24;;;;;;;5.72;5.22;;;;;;;;;;5053279;28;20197;-64
2020/12/25 07:24:51;;;;;;;10.40;6.00;;;;;;;;;;5053418;28;20604;-64
2020/12/25 07:27:20;;;;;;;6.05;4.78;;;;;;;;;;5053479;28;20197;-63
2020/12/25 07:29:47;;;;;;;9.55;7.50;;;;;;;;;;5053214;28;20228;-64
2020/12/25 07:32:13;;;;;;;6.70;6.00;;;;;;;;;;5053427;28;20185;-64
2020/12/25 07:34:40;;;;;;;8.43;7.15;;;;;;;;;;5053571;28;20220;-64
2020/12/25 07:37:10;;;;;;;8.45;7.55;;;;;;;;;;5053151;28;20684;-64
2020/12/25 07:39:36;;;;;;;6.97;6.13;;;;;;;;;;5053410;28;20644;-64
2020/12/25 07:42:03;;;;;;;5.05;4.63;;;;;;;;;;5053441;28;20201;-64
2020/12/25 07:44:30;;;;;;;7.75;5.82;;;;;;;;;;5053105;28;20197;-64
2020/12/25 07:46:57;;;;;;;6.82;6.03;;;;;;;;;;5053470;28;20208;-64
2020/12/25 07:49:24;;;;;;;6.20;5.60;;;;;;;;;;5052062;28;20266;-64
2020/12/25 07:51:50;;;;;;;8.55;6.07;;;;;;;;;;5053625;28;20204;-64
2020/12/25 07:54:17;;;;;;;7.05;6.40;;;;;;;;;;5052033;28;20598;-64
2020/12/25 07:56:45;;;;;;;6.28;5.28;;;;;;;;;;5053470;28;20246;-64
2020/12/25 07:59:12;;;;;;;5.22;4.40;;;;;;;;;;5053208;28;20192;-64
2020/12/25 08:01:39;;;;;;;6.68;5.57;;;;;;;;;;5053138;28;20205;-64
2020/12/25 08:04:06;;;;;;;5.95;5.45;;;;;;;;;;5053233;28;20209;-64
2020/12/25 08:06:34;;;;;;;6.47;5.78;;;;;;;;;;5054334;28;20211;-64
2020/12/25 08:09:00;;;;;;;6.57;5.85;;;;;;;;;;5057023;28;20207;-64
2020/12/25 08:11:27;;;;;;;10.52;6.93;;;;;;;;;;5057237;28;20185;-64
2020/12/25 08:13:54;;;;;;;8.13;5.78;;;;;;;;;;5056750;28;20216;-64
2020/12/25 08:16:23;;;;;;;5.43;4.93;;;;;;;;;;5056704;28;20192;-64
2020/12/25 08:18:54;;;;;;;6.65;5.95;;;;;;;;;;5056625;28;20188;-63
2020/12/25 08:21:31;;;;;;;6.13;5.53;;;;;;;;;;5057544;28;20201;-63
2020/12/25 08:23:58;;;;;;;8.05;5.60;;;;;;;;;;5060701;28;20214;-63
2020/12/25 08:26:29;;;;;;;6.95;5.70;;;;;;;;;;5076791;28;20546;-63
2020/12/25 08:28:56;;;;;;;7.90;5.72;;;;;;;;;;5076169;28;20574;-64
2020/12/25 08:31:22;;;;;;;11.05;8.23;;;;;;;;;;5064586;28;20645;-64
2020/12/25 08:33:53;;;;;;;25.45;17.27;;;;;;;;;;5072957;28;20212;-64
2020/12/25 08:36:20;;;;;;;26.98;18.55;;;;;;;;;;5075830;28;20208;-64
2020/12/25 08:38:46;;;;;;;12.85;9.55;;;;;;;;;;5075681;28;20192;-64
2020/12/25 08:41:13;;;;;;;11.43;10.23;;;;;;;;;;5075611;28;20192;-64
2020/12/25 08:43:41;;;;;;;6.60;5.90;;;;;;;;;;5073994;28;20200;-64
2020/12/25 08:46:08;;;;;;;9.40;8.50;;;;;;;;;;5062263;28;20201;-64
2020/12/25 08:48:35;;;;;;;7.80;6.35;;;;;;;;;;5075499;28;20212;-64
2020/12/25 08:51:08;;;;;;;11.55;6.82;;;;;;;;;;5070550;28;20223;-64
2020/12/25 08:53:38;;;;;;;6.95;6.13;;;;;;;;;;5066682;28;20235;-63
2020/12/25 08:56:15;;;;;;;9.50;5.07;;;;;;;;;;5076037;28;20253;-64
2020/12/25 08:58:54;;;;;;;5.43;4.55;;;;;;;;;;5075954;28;20190;-63
2020/12/25 09:01:20;;;;;;;6.43;5.82;;;;;;;;;;5076109;28;20180;-64
2020/12/25 09:03:48;;;;;;;6.30;5.70;;;;;;;;;;5075807;28;20200;-62
2020/12/25 09:06:17;;;;;;;6.85;5.85;;;;;;;;;;5075932;28;20598;-64
2020/12/25 09:08:44;;;;;;;8.60;6.75;;;;;;;;;;5075591;28;20549;-63
2020/12/25 09:11:11;;;;;;;5.75;4.82;;;;;;;;;;5075799;28;20214;-63
2020/12/25 09:13:39;;;;;;;8.10;4.25;;;;;;;;;;5075607;28;20319;-63
2020/12/25 09:16:06;;;;;;;4.90;4.50;;;;;;;;;;5075804;28;20659;-64
2020/12/25 09:18:35;;;;;;;7.03;6.30;;;;;;;;;;5074651;28;20208;-65
2020/12/25 09:21:02;;;;;;;5.05;4.57;;;;;;;;;;5075729;28;20194;-63
2020/12/25 09:23:29;;;;;;;6.47;5.20;;;;;;;;;;5075393;28;20218;-65
2020/12/25 09:25:56;;;;;;;8.50;5.00;;;;;;;;;;5075008;28;20192;-65
2020/12/25 09:28:27;;;;;;;5.90;4.63;;;;;;;;;;5076011;28;20181;-65
2020/12/25 09:30:54;;;;;;;5.72;5.15;;;;;;;;;;5075090;28;20223;-64
2020/12/25 09:33:21;;;;;;;7.28;6.50;;;;;;;;;;5074810;28;20599;-64
2020/12/25 09:35:48;;;;;;;5.35;4.85;;;;;;;;;;5075120;28;20196;-64
2020/12/25 09:38:18;;;;;;;9.55;5.45;;;;;;;;;;5074857;28;20292;-65
2020/12/25 09:40:47;;;;;;;7.15;5.72;;;;;;;;;;5075048;28;20191;-64
2020/12/25 09:43:14;;;;;;;3.97;3.38;;;;;;;;;;5075406;28;20219;-65
2020/12/25 09:45:41;;;;;;;5.25;4.75;;;;;;;;;;5074658;28;20212;-64
2020/12/25 09:48:07;;;;;;;7.32;4.65;;;;;;;;;;5074880;28;20212;-65
2020/12/25 09:50:34;;;;;;;6.28;4.88;;;;;;;;;;5073250;28;20570;-65
2020/12/25 09:53:01;;;;;;;7.75;5.80;;;;;;;;;;5070271;28;20188;-65
2020/12/25 09:55:27;;;;;;;5.45;4.93;;;;;;;;;;5072761;28;20249;-65
2020/12/25 09:57:55;;;;;;;6.13;5.47;;;;;;;;;;5074066;28;20207;-65
2020/12/25 10:00:22;;;;;;;6.00;5.40;;;;;;;;;;5073866;28;20188;-65
2020/12/25 10:02:51;;;;;;;6.63;4.90;;;;;;;;;;5072546;28;20283;-63
2020/12/25 10:05:17;;;;;;;9.43;5.55;;;;;;;;;;5058484;28;20656;-65
2020/12/25 10:07:44;;;;;;;8.10;7.30;;;;;;;;;;5071707;28;20200;-65
2020/12/25 10:10:15;;;;;;;6.55;5.05;;;;;;;;;;5074144;28;20203;-65
2020/12/25 10:12:41;;;;;;;4.43;3.90;;;;;;;;;;5074022;28;20191;-65
2020/12/25 10:15:11;;;;;;;16.20;12.27;;;;;;;;;;5073951;28;20219;-65
2020/12/25 10:17:37;;;;;;;5.38;4.88;;;;;;;;;;5073953;28;20192;-63
2020/12/25 10:20:04;;;;;;;6.97;5.80;;;;;;;;;;5074048;28;20184;-64
2020/12/25 10:22:33;;;;;;;9.40;5.07;;;;;;;;;;5073598;28;20196;-64
2020/12/25 10:25:01;;;;;;;4.45;4.05;;;;;;;;;;5073785;28;20631;-64
2020/12/25 10:27:27;;;;;;;6.50;4.55;;;;;;;;;;5057697;28;20216;-64
2020/12/25 10:29:57;;;;;;;6.60;6.00;;;;;;;;;;5073268;28;20278;-64
2020/12/25 10:32:25;;;;;;;8.27;5.00;;;;;;;;;;5071617;28;20207;-64
2020/12/25 10:34:54;;;;;;;6.95;5.85;;;;;;;;;;5073164;28;20215;-64
2020/12/25 10:37:20;;;;;;;5.55;4.63;;;;;;;;;;5068376;28;20232;-64
2020/12/25 10:39:47;;;;;;;6.07;4.15;;;;;;;;;;5065061;28;20196;-64
2020/12/25 10:42:18;;;;;;;7.10;4.75;;;;;;;;;;5072240;28;20237;-63
2020/12/25 10:44:45;;;;;;;7.00;4.88;;;;;;;;;;5072399;28;20250;-63
2020/12/25 10:48:00;;;;;;;5.10;4.10;;;;;;;;;;5131670;27;20791;-64
2020/12/25 10:50:27;;;;;;;8.35;5.10;;;;;;;;;;5130406;28;20194;-64
2020/12/25 10:52:55;;;;;;;4.03;3.72;;;;;;;;;;5111341;28;20198;-64
2020/12/25 10:55:21;;;;;;;4.40;4.00;;;;;;;;;;5111688;28;20216;-64
2020/12/25 10:57:48;;;;;;;4.30;2.78;;;;;;;;;;5110265;28;20198;-64
2020/12/25 11:00:15;;;;;;;4.05;2.70;;;;;;;;;;5111752;28;20194;-64
2020/12/25 11:02:43;;;;;;;3.08;2.88;;;;;;;;;;5111821;28;20210;-64
2020/12/25 11:05:10;;;;;;;6.25;4.35;;;;;;;;;;5111976;28;20209;-64
2020/12/25 11:07:36;;;;;;;8.10;4.38;;;;;;;;;;5111454;28;20214;-64
2020/12/25 11:10:04;;;;;;;7.10;3.00;;;;;;;;;;5111478;28;20219;-64
2020/12/25 11:12:30;;;;;;;4.00;3.30;;;;;;;;;;5111235;28;20187;-64
2020/12/25 11:14:59;;;;;;;3.22;2.95;;;;;;;;;;5111300;28;20195;-64
2020/12/25 11:17:26;;;;;;;2.65;2.55;;;;;;;;;;5111012;28;20616;-64
2020/12/25 11:19:55;;;;;;;3.25;3.05;;;;;;;;;;5111028;28;20305;-64
2020/12/25 11:22:25;;;;;;;2.83;2.63;;;;;;;;;;5110397;28;20217;-63
2020/12/25 11:24:51;;;;;;;2.50;2.40;;;;;;;;;;5110171;28;20198;-65
2020/12/25 11:27:18;;;;;;;3.70;2.50;;;;;;;;;;5110554;28;20218;-64
2020/12/25 11:29:45;;;;;;;3.65;2.42;;;;;;;;;;5110809;28;20198;-64
2020/12/25 11:32:11;;;;;;;11.05;7.65;;;;;;;;;;5110793;28;20197;-64
2020/12/25 11:34:38;;;;;;;15.60;10.75;;;;;;;;;;5110527;28;20556;-64
2020/12/25 11:37:06;;;;;;;3.40;3.10;;;;;;;;;;5110529;28;20254;-64
2020/12/25 11:39:32;;;;;;;3.00;2.80;;;;;;;;;;5110464;28;20580;-64
2020/12/25 11:41:59;;;;;;;5.15;2.53;;;;;;;;;;5110305;28;20206;-64
2020/12/25 11:44:25;;;;;;;3.22;2.92;;;;;;;;;;5109083;28;20258;-64
2020/12/25 11:46:57;;;;;;;3.50;3.20;;;;;;;;;;5110105;28;20231;-64
2020/12/25 11:49:23;;;;;;;6.30;5.13;;;;;;;;;;5110343;28;20223;-64
2020/12/25 11:51:58;;;;;;;3.67;3.47;;;;;;;;;;5110537;28;20202;-64
2020/12/25 11:54:25;;;;;;;5.47;3.30;;;;;;;;;;5102771;28;20184;-64
2020/12/25 11:56:53;;;;;;;3.17;2.90;;;;;;;;;;5130194;28;20263;-64
2020/12/25 11:59:20;;;;;;;3.22;2.92;;;;;;;;;;5116784;27;20210;-65
2020/12/25 12:01:47;;;;;;;3.90;2.50;;;;;;;;;;5116664;28;20606;-65
2020/12/25 12:04:16;;;;;;;2.10;2.00;;;;;;;;;;5116262;28;20195;-65
2020/12/25 12:06:43;;;;;;;2.47;2.28;;;;;;;;;;5112755;28;20619;-65
2020/12/25 12:09:10;;;;;;;3.10;2.22;;;;;;;;;;5095868;28;20192;-65
2020/12/25 12:11:43;;;;;;;2.40;2.20;;;;;;;;;;5094392;28;20197;-65
2020/12/25 12:14:10;;;;;;;2.50;2.30;;;;;;;;;;5096213;28;20195;-65
2020/12/25 12:16:39;;;;;;;4.15;3.65;;;;;;;;;;5096110;28;20293;-65
2020/12/25 12:19:06;;;;;;;2.30;2.10;;;;;;;;;;5096155;28;20201;-65
2020/12/25 12:21:36;;;;;;;3.40;3.08;;;;;;;;;;5096267;28;20203;-65
2020/12/25 12:24:05;;;;;;;3.05;2.00;;;;;;;;;;5096068;28;20191;-65
2020/12/25 12:26:36;;;;;;;13.52;9.52;;;;;;;;;;5095862;28;20200;-65
2020/12/25 12:29:06;;;;;;;4.70;4.03;;;;;;;;;;5095917;28;20291;-65
2020/12/25 12:31:52;;;;;;;11.40;7.28;;;;;;;;;;5095697;28;20216;-65
2020/12/25 12:34:19;;;;;;;3.67;2.92;;;;;;;;;;5094440;28;20198;-65
2020/12/25 12:36:47;;;;;;;2.80;2.25;;;;;;;;;;5095520;28;20207;-65
2020/12/25 12:39:14;;;;;;;2.67;2.10;;;;;;;;;;5095615;28;20313;-65
2020/12/25 12:41:41;;;;;;;3.30;3.10;;;;;;;;;;5095287;28;20207;-65
2020/12/25 12:44:08;;;;;;;2.30;2.10;;;;;;;;;;5107110;28;20205;-65
2020/12/25 12:46:34;;;;;;;2.47;2.28;;;;;;;;;;5114905;27;20229;-64
2020/12/25 12:49:03;;;;;;;2.50;2.25;;;;;;;;;;5115222;28;20211;-64
2020/12/25 12:51:31;;;;;;;3.15;2.33;;;;;;;;;;5115253;28;20190;-64
2020/12/25 12:53:58;;;;;;;1.85;1.75;;;;;;;;;;5113990;28;20199;-64
2020/12/25 12:56:24;;;;;;;1.80;1.70;;;;;;;;;;5115133;27;20198;-64
2020/12/25 12:58:51;;;;;;;2.85;2.20;;;;;;;;;;5106792;28;20250;-65
2020/12/25 13:01:21;;;;;;;2.42;2.22;;;;;;;;;;5095504;28;20237;-65
2020/12/25 13:03:48;;;;;;;4.47;2.95;;;;;;;;;;5095480;28;20635;-65
2020/12/25 13:06:15;;;;;;;4.00;3.60;;;;;;;;;;5094940;28;20231;-65
2020/12/25 13:08:41;;;;;;;8.30;5.35;;;;;;;;;;5095400;28;20233;-65
2020/12/25 13:11:11;;;;;;;3.00;2.80;;;;;;;;;;5094256;28;20565;-65
2020/12/25 13:13:37;;;;;;;4.03;3.00;;;;;;;;;;5095346;28;20191;-64
2020/12/25 13:16:04;;;;;;;7.53;4.90;;;;;;;;;;5095452;28;20195;-64
2020/12/25 13:18:31;;;;;;;1.83;1.70;;;;;;;;;;5095057;28;20691;-64
2020/12/25 13:20:58;;;;;;;3.50;3.20;;;;;;;;;;5094886;28;20199;-64
2020/12/25 13:23:27;;;;;;;6.47;4.07;;;;;;;;;;5095246;28;20226;-65
2020/12/25 13:25:53;;;;;;;2.50;2.15;;;;;;;;;;5095277;28;20192;-65
2020/12/25 13:28:20;;;;;;;7.18;3.60;;;;;;;;;;5094984;28;20214;-64
2020/12/25 13:30:47;;;;;;;2.00;1.90;;;;;;;;;;5094945;28;20192;-65
2020/12/25 13:33:16;;;;;;;3.05;2.58;;;;;;;;;;5094950;28;20554;-64
2020/12/25 13:35:43;;;;;;;3.13;2.90;;;;;;;;;;5093411;28;20317;-64
2020/12/25 13:38:13;;;;;;;5.10;1.98;;;;;;;;;;5094824;28;20270;-64
2020/12/25 13:40:43;;;;;;;2.00;1.80;;;;;;;;;;5095002;28;20290;-64
2020/12/25 13:43:09;;;;;;;1.90;1.80;;;;;;;;;;5094674;28;20198;-64
2020/12/25 13:45:36;;;;;;;1.80;1.70;;;;;;;;;;5094907;28;20191;-64
2020/12/25 13:48:02;;;;;;;3.38;2.33;;;;;;;;;;5093018;28;20706;-64
2020/12/25 13:50:29;;;;;;;4.25;3.42;;;;;;;;;;5094421;28;20320;-64
2020/12/25 13:52:56;;;;;;;3.95;3.55;;;;;;;;;;5094150;28;20215;-64
2020/12/25 13:55:22;;;;;;;3.53;2.67;;;;;;;;;;5094630;28;20668;-64
2020/12/25 13:57:51;;;;;;;2.97;2.75;;;;;;;;;;5094305;28;20203;-64
2020/12/25 14:00:17;;;;;;;6.35;2.42;;;;;;;;;;5094713;28;20194;-64
2020/12/25 14:02:46;;;;;;;3.97;2.50;;;;;;;;;;5094291;28;20646;-64
2020/12/25 14:05:15;;;;;;;2.75;2.45;;;;;;;;;;5093183;28;20233;-64
2020/12/25 14:07:45;;;;;;;8.45;3.63;;;;;;;;;;5094298;28;20233;-64
2020/12/25 14:10:12;;;;;;;2.92;2.50;;;;;;;;;;5094460;28;20191;-64
2020/12/25 14:12:44;;;;;;;3.20;2.95;;;;;;;;;;5094516;28;20179;-65
2020/12/25 14:15:11;;;;;;;4.53;2.65;;;;;;;;;;5092827;28;20642;-65
2020/12/25 14:17:38;;;;;;;8.13;3.03;;;;;;;;;;5094577;28;20199;-65
2020/12/25 14:20:04;;;;;;;3.55;2.95;;;;;;;;;;5094345;28;20191;-65
2020/12/25 14:22:35;;;;;;;6.10;4.25;;;;;;;;;;5094348;28;20179;-64
2020/12/25 14:25:04;;;;;;;3.15;2.80;;;;;;;;;;5094235;28;20282;-65
2020/12/25 14:27:35;;;;;;;3.33;2.45;;;;;;;;;;5094054;28;20218;-64
2020/12/25 14:30:02;;;;;;;3.30;3.00;;;;;;;;;;5094213;28;20202;-64
2020/12/25 14:32:29;;;;;;;3.17;2.78;;;;;;;;;;5094177;28;20191;-64
2020/12/25 14:34:55;;;;;;;8.63;4.35;;;;;;;;;;5093671;28;20203;-64
2020/12/25 14:37:23;;;;;;;3.30;2.60;;;;;;;;;;5094272;28;20219;-64
2020/12/25 14:39:50;;;;;;;4.85;3.53;;;;;;;;;;5094132;28;20223;-70
2020/12/25 14:42:17;;;;;;;4.47;3.30;;;;;;;;;;5094105;28;20191;-70
2020/12/25 14:44:44;;;;;;;3.63;3.33;;;;;;;;;;5093893;28;20554;-64
2020/12/25 14:47:10;;;;;;;4.10;3.40;;;;;;;;;;5093668;28;20235;-64